Disclaimer

Please do not use the information listed here in-flight or in-navigation, as they are not provided to us by the airports but are provided by volunteers, so they might be outdated.

Search


Regions


Airport information page

Radio informations:
Tower (TWR) - 118.4 MHz

Airport informations:
Latitude: 25° 59' 21.10" N
Longitude: 111° 20' 54.10" W
Elevation: 34 feet - 10 meters
Operating hours: Remarks
Operating agency: Civil government, landing fees and diplomatic clearance may be required
Timezone: UTC-7(-6DT) - First Sunday in April to the last Saturday in October
Fuel: Jet A1, without icing nhibitor.

100/130 MIL Spec, low lead, aviation gasoline (BLUE)

Runway information:
16/34 - 7218 x 148 feet< - >2200 x 45 meters

Recent METARs:
MMLT 131751Z 33020KT 8SM SKC 24/20 A3009 RMK SLP1810 HZY
MMLT 131852Z 33020KT 8SM SKC 24/17 A3007 RMK HZY
MMLT 131852Z 33020KT 8SM SKC 24/17 A3007 RMK HZY

Airport on the map: